Time;durP1;ratioP1;P1;durP2;ratioP2;P2;SDS_P1;SDS_P2;PMS_P1;PMS_P2;Temp;Humidity;BMP_temperature;BMP_pressure;BME280_temperature;BME280_humidity;BME280_pressure;Samples;Min_cycle;Max_cycle;Signal;HPM_P1;HPM_P2
2021/06/30 02:45:08;;;;;;;1.30;0.87;;;20.40;72.90;;;;;;5659047;24;20034;31
2021/06/30 02:47:35;;;;;;;0.45;0.40;;;20.50;73.10;;;;;;4680557;30;20081;-75
2021/06/30 02:50:02;;;;;;;1.25;0.60;;;20.50;72.90;;;;;;4675555;30;20039;-75
2021/06/30 02:52:27;;;;;;;3.53;0.98;;;20.50;72.90;;;;;;4679833;30;20033;-75
2021/06/30 02:54:53;;;;;;;3.70;0.90;;;20.50;72.80;;;;;;4692460;30;20341;-75
2021/06/30 02:57:19;;;;;;;2.15;0.75;;;20.50;72.90;;;;;;4686480;30;20030;-75
2021/06/30 02:59:45;;;;;;;0.55;0.50;;;20.50;73.10;;;;;;4677438;30;20038;-75
2021/06/30 03:02:10;;;;;;;2.80;0.90;;;20.50;73.20;;;;;;4681653;30;20049;-75
2021/06/30 03:04:36;;;;;;;1.00;0.63;;;20.50;73.30;;;;;;4678259;30;20295;-75
2021/06/30 03:07:02;;;;;;;0.65;0.50;;;20.50;73.40;;;;;;4687935;30;20040;-75
2021/06/30 03:09:28;;;;;;;1.80;0.90;;;20.40;73.30;;;;;;4690759;30;20034;-76
2021/06/30 03:11:54;;;;;;;3.63;1.00;;;20.40;73.70;;;;;;4687082;30;20110;-75
2021/06/30 03:14:20;;;;;;;1.27;0.65;;;20.40;73.80;;;;;;4682869;30;20031;-75
2021/06/30 03:16:48;;;;;;;2.38;1.10;;;20.40;74.10;;;;;;4693785;30;20081;-75
2021/06/30 03:19:14;;;;;;;3.58;0.77;;;20.30;74.30;;;;;;4681995;30;20038;-75
2021/06/30 03:21:40;;;;;;;0.90;0.65;;;20.30;74.10;;;;;;4680967;30;20360;-76
2021/06/30 03:24:06;;;;;;;1.58;0.60;;;20.20;74.00;;;;;;4688231;30;20038;-75
2021/06/30 03:26:32;;;;;;;2.22;0.50;;;20.20;74.10;;;;;;4676906;30;20093;-75
2021/06/30 03:29:00;;;;;;;2.05;0.60;;;20.30;73.90;;;;;;4693100;30;20214;-75
2021/06/30 03:31:26;;;;;;;1.38;0.70;;;20.30;73.70;;;;;;4678053;30;20056;-75
2021/06/30 03:33:52;;;;;;;1.48;0.40;;;20.30;73.70;;;;;;4693848;30;20030;-75
2021/06/30 03:36:17;;;;;;;2.38;0.55;;;20.40;73.60;;;;;;4687858;30;20085;-75
2021/06/30 03:38:43;;;;;;;0.85;0.68;;;20.30;73.50;;;;;;4698818;30;20110;-75
2021/06/30 03:41:09;;;;;;;1.70;0.68;;;20.40;73.80;;;;;;4689356;30;20283;-76
2021/06/30 03:43:35;;;;;;;1.15;0.75;;;20.30;73.40;;;;;;4685204;30;20030;-75
2021/06/30 03:46:01;;;;;;;1.23;0.75;;;20.40;73.30;;;;;;4683376;30;20069;-76
2021/06/30 03:48:26;;;;;;;1.45;0.68;;;20.40;73.40;;;;;;4697229;30;20045;-75
2021/06/30 03:50:52;;;;;;;1.13;0.93;;;20.40;73.60;;;;;;4705865;30;20033;-75
2021/06/30 03:53:19;;;;;;;0.98;0.73;;;20.40;73.60;;;;;;4700888;30;20054;-75
2021/06/30 03:55:45;;;;;;;3.03;1.00;;;20.40;73.20;;;;;;4690810;30;20280;-75
2021/06/30 03:58:11;;;;;;;1.55;0.60;;;20.50;72.90;;;;;;4695805;30;20179;-75
2021/06/30 04:00:37;;;;;;;5.50;0.57;;;20.50;72.90;;;;;;4694209;30;20087;-75
2021/06/30 04:03:02;;;;;;;1.60;0.80;;;20.50;72.80;;;;;;4682143;30;20038;-76
2021/06/30 04:05:28;;;;;;;1.67;1.02;;;20.60;72.80;;;;;;4706241;30;20065;-75
2021/06/30 04:07:54;;;;;;;2.80;0.90;;;20.60;72.50;;;;;;4687156;30;20105;-75
2021/06/30 04:10:20;;;;;;;4.43;1.00;;;20.70;72.60;;;;;;4687320;30;20033;-75
2021/06/30 04:12:46;;;;;;;5.63;1.00;;;20.80;72.50;;;;;;4705875;30;20050;-75
2021/06/30 04:15:13;;;;;;;3.20;0.90;;;20.90;72.70;;;;;;4682486;30;20372;-75
2021/06/30 04:17:39;;;;;;;4.10;1.35;;;20.90;72.70;;;;;;4700499;30;20088;-75
2021/06/30 04:20:08;;;;;;;3.83;1.10;;;20.90;72.80;;;;;;4698853;30;20042;-75
2021/06/30 04:22:35;;;;;;;5.53;1.25;;;20.90;72.90;;;;;;4682829;30;20276;-75
2021/06/30 04:25:03;;;;;;;1.33;0.80;;;20.90;72.90;;;;;;4681623;30;20109;-75
2021/06/30 04:27:29;;;;;;;2.05;0.90;;;21.00;73.00;;;;;;4695181;30;20048;-75
2021/06/30 04:29:55;;;;;;;2.40;1.10;;;21.10;72.50;;;;;;4687059;30;20042;-75
2021/06/30 04:32:21;;;;;;;3.05;0.70;;;21.20;72.10;;;;;;4696454;30;20110;-75
2021/06/30 04:34:47;;;;;;;3.78;1.30;;;21.30;70.50;;;;;;4694728;30;20314;-75
2021/06/30 04:37:12;;;;;;;10.68;0.90;;;21.20;70.60;;;;;;4684558;30;20037;-75
2021/06/30 04:39:38;;;;;;;0.93;0.77;;;21.30;71.20;;;;;;4699744;30;20034;-75
2021/06/30 04:42:04;;;;;;;1.58;0.77;;;21.30;70.20;;;;;;4700108;30;20038;-75
2021/06/30 04:44:30;;;;;;;2.63;0.90;;;21.30;69.40;;;;;;4698041;30;20046;-75
2021/06/30 04:46:55;;;;;;;1.38;0.85;;;21.30;69.50;;;;;;4682840;30;20057;-73
2021/06/30 04:49:21;;;;;;;1.88;1.00;;;21.30;69.20;;;;;;4691869;30;20030;-72
2021/06/30 04:51:47;;;;;;;3.53;0.98;;;21.40;69.50;;;;;;4680602;30;20053;-73
2021/06/30 04:54:14;;;;;;;1.35;0.60;;;21.40;68.50;;;;;;4691452;30;20061;-72
2021/06/30 04:56:40;;;;;;;0.75;0.45;;;21.50;68.60;;;;;;4698754;30;20341;-72
2021/06/30 04:59:07;;;;;;;1.13;0.60;;;21.40;68.30;;;;;;4682318;30;20045;-72
2021/06/30 05:01:33;;;;;;;1.83;0.80;;;21.50;67.80;;;;;;4698715;30;20103;-73
2021/06/30 05:03:59;;;;;;;3.85;0.77;;;21.50;68.10;;;;;;4683904;30;20048;-72
2021/06/30 05:06:25;;;;;;;2.72;0.80;;;21.60;67.70;;;;;;4682968;30;20069;-74
2021/06/30 05:08:51;;;;;;;1.77;0.65;;;21.60;67.40;;;;;;4682952;30;20341;-72
2021/06/30 05:11:17;;;;;;;3.70;0.68;;;21.60;67.50;;;;;;4686803;30;20176;-73
2021/06/30 05:13:43;;;;;;;0.77;0.55;;;21.70;67.00;;;;;;4685493;30;20101;-76
2021/06/30 05:16:09;;;;;;;1.13;0.70;;;21.80;66.90;;;;;;4699332;30;20035;-75
2021/06/30 05:18:35;;;;;;;3.08;0.70;;;22.00;66.00;;;;;;4697292;30;20065;-75
2021/06/30 05:21:01;;;;;;;3.88;0.82;;;22.50;64.10;;;;;;4688585;30;20038;-76
2021/06/30 05:23:26;;;;;;;4.97;0.73;;;23.30;62.00;;;;;;4687423;30;20085;-76
2021/06/30 05:25:52;;;;;;;2.72;0.68;;;24.10;58.40;;;;;;4687971;30;20034;-75
2021/06/30 05:28:18;;;;;;;3.92;0.60;;;24.80;58.20;;;;;;4680707;30;20091;-76
2021/06/30 05:30:44;;;;;;;2.08;0.40;;;25.40;54.60;;;;;;4677820;30;20018;-76
2021/06/30 05:33:11;;;;;;;1.10;0.70;;;25.90;54.10;;;;;;4688986;30;20036;-76
2021/06/30 05:35:37;;;;;;;3.28;0.63;;;26.30;52.90;;;;;;4689892;30;20097;-77
2021/06/30 05:38:02;;;;;;;1.35;0.68;;;26.70;52.20;;;;;;4688563;30;20039;-77
2021/06/30 05:40:28;;;;;;;2.60;0.70;;;26.90;51.10;;;;;;4703769;30;20057;-76
2021/06/30 05:42:57;;;;;;;1.75;0.70;;;27.10;50.50;;;;;;4688068;30;20042;-76
2021/06/30 05:45:23;;;;;;;0.88;0.70;;;27.30;49.90;;;;;;4690491;30;20354;-77
2021/06/30 05:47:50;;;;;;;1.63;0.90;;;27.40;49.50;;;;;;4699849;30;20044;-76
2021/06/30 05:50:18;;;;;;;1.98;0.98;;;27.30;49.00;;;;;;4687493;30;20297;-76
2021/06/30 05:52:44;;;;;;;5.22;0.85;;;26.90;49.50;;;;;;4698194;30;20065;-77
2021/06/30 05:55:10;;;;;;;3.87;1.10;;;26.70;50.10;;;;;;4687457;30;20041;-76
2021/06/30 05:57:36;;;;;;;2.35;0.70;;;26.40;51.10;;;;;;4699362;30;20291;-76
2021/06/30 06:00:09;;;;;;;6.30;1.00;;;26.20;51.40;;;;;;4680602;30;20322;-76
2021/06/30 06:02:35;;;;;;;4.75;1.20;;;26.30;51.80;;;;;;4684679;30;20049;-76
2021/06/30 06:05:01;;;;;;;3.15;0.82;;;26.30;51.50;;;;;;4684192;30;20034;-76
2021/06/30 06:07:27;;;;;;;4.15;0.60;;;26.10;51.80;;;;;;4683905;30;20037;-75
2021/06/30 06:09:52;;;;;;;5.63;0.90;;;25.70;52.80;;;;;;4689051;30;20030;-75
2021/06/30 06:12:18;;;;;;;7.13;1.20;;;25.50;53.60;;;;;;4699942;30;20081;-76
2021/06/30 06:14:44;;;;;;;1.77;0.57;;;25.30;54.20;;;;;;4704391;30;20094;-77
2021/06/30 06:17:10;;;;;;;3.83;1.27;;;25.20;54.30;;;;;;4692023;30;20053;-76
2021/06/30 06:19:36;;;;;;;5.00;1.00;;;25.20;54.50;;;;;;4683860;30;20042;-75
2021/06/30 06:22:05;;;;;;;4.32;1.20;;;25.20;55.20;;;;;;4696999;30;20046;-76
2021/06/30 06:24:32;;;;;;;9.73;0.82;;;25.10;54.60;;;;;;4699546;30;20040;-75
2021/06/30 06:26:58;;;;;;;4.85;1.02;;;25.30;54.80;;;;;;4680807;30;20034;-76
2021/06/30 06:29:24;;;;;;;3.20;1.02;;;25.30;53.80;;;;;;4698866;30;20130;-76
2021/06/30 06:31:50;;;;;;;4.20;0.95;;;25.40;53.60;;;;;;4698168;30;20045;-76
2021/06/30 06:34:20;;;;;;;6.75;1.13;;;25.50;53.50;;;;;;4700004;30;20026;-76
2021/06/30 06:36:50;;;;;;;9.25;1.10;;;25.30;53.30;;;;;;4702029;30;20503;-76
2021/06/30 06:39:19;;;;;;;8.50;0.82;;;25.30;53.30;;;;;;4689377;30;20022;-76
2021/06/30 06:41:46;;;;;;;3.92;0.90;;;25.30;52.90;;;;;;4699634;30;20057;-76
2021/06/30 06:44:12;;;;;;;3.92;1.02;;;25.40;52.60;;;;;;4678678;30;20038;-79
2021/06/30 06:46:39;;;;;;;5.43;0.57;;;25.40;52.40;;;;;;4687243;30;20050;-78
2021/06/30 06:49:09;;;;;;;1.60;0.82;;;25.50;52.80;;;;;;4694375;30;20059;-77
2021/06/30 06:51:37;;;;;;;4.00;0.90;;;25.50;52.60;;;;;;4687686;30;20056;-76
2021/06/30 06:54:03;;;;;;;9.05;1.52;;;25.60;52.00;;;;;;4698075;30;20031;-77
2021/06/30 06:56:29;;;;;;;6.72;1.20;;;25.70;51.90;;;;;;4677577;30;20034;-78
2021/06/30 06:58:55;;;;;;;1.35;0.90;;;25.70;52.60;;;;;;4689745;30;20042;-77
2021/06/30 07:01:22;;;;;;;4.95;0.73;;;25.70;52.40;;;;;;4685730;30;20042;-77
2021/06/30 07:03:48;;;;;;;;;;;25.80;52.80;;;;;;4702516;30;20053;-77
2021/06/30 07:06:14;;;;;;;0.90;0.80;;;25.90;52.70;;;;;;4688239;30;19955;-76
2021/06/30 07:08:40;;;;;;;4.65;0.93;;;26.00;52.70;;;;;;4692007;30;20058;-76
2021/06/30 07:11:09;;;;;;;4.33;0.87;;;26.10;52.50;;;;;;4702655;30;20080;-77
2021/06/30 07:13:35;;;;;;;1.23;0.80;;;26.10;52.60;;;;;;4690843;30;20322;-76
2021/06/30 07:16:04;;;;;;;3.22;1.25;;;26.20;51.20;;;;;;4688232;30;20034;-73
2021/06/30 07:18:30;;;;;;;3.05;1.00;;;25.90;51.60;;;;;;4706573;30;20057;-73
2021/06/30 07:20:56;;;;;;;4.35;2.70;;;25.50;51.70;;;;;;4686660;30;20057;-72
2021/06/30 07:23:22;;;;;;;1.35;0.77;;;25.30;53.30;;;;;;4677688;30;20345;-73
2021/06/30 07:25:48;;;;;;;3.08;1.27;;;25.30;53.30;;;;;;4681884;30;20133;-73
2021/06/30 07:28:13;;;;;;;2.97;0.80;;;25.20;53.70;;;;;;4687171;30;20064;-74
2021/06/30 07:30:39;;;;;;;3.55;1.27;;;24.90;54.60;;;;;;4676891;30;20042;-73
2021/06/30 07:33:05;;;;;;;9.63;1.30;;;24.80;55.60;;;;;;4677584;30;20110;-74
2021/06/30 07:35:31;;;;;;;10.07;1.30;;;24.70;55.20;;;;;;4681589;30;20030;-73
2021/06/30 07:37:56;;;;;;;5.32;1.00;;;24.80;55.30;;;;;;4700780;30;20057;-74
2021/06/30 07:40:22;;;;;;;4.18;1.08;;;25.00;55.40;;;;;;4694949;30;20070;-73
2021/06/30 07:42:48;;;;;;;2.33;1.10;;;25.10;54.70;;;;;;4676268;30;20038;-73
2021/06/30 07:45:14;;;;;;;3.58;1.40;;;25.50;54.30;;;;;;4679876;30;20113;-73
2021/06/30 07:47:40;;;;;;;2.53;0.70;;;25.70;53.60;;;;;;4687420;30;20042;-73
2021/06/30 07:50:07;;;;;;;1.52;0.98;;;25.70;53.10;;;;;;4685444;30;20038;-73
2021/06/30 07:52:33;;;;;;;1.92;1.02;;;25.70;53.70;;;;;;4699549;30;20030;-73
2021/06/30 07:54:59;;;;;;;1.85;1.00;;;25.70;53.30;;;;;;4684872;30;20100;-74
2021/06/30 07:57:25;;;;;;;1.33;1.05;;;25.70;52.60;;;;;;4701025;30;20045;-73
2021/06/30 07:59:51;;;;;;;3.22;1.52;;;25.40;52.40;;;;;;4678483;30;20303;-73
2021/06/30 08:02:17;;;;;;;3.53;1.38;;;25.20;53.40;;;;;;4685341;30;20117;-73
2021/06/30 08:04:43;;;;;;;4.85;1.13;;;25.20;53.20;;;;;;4694886;30;20043;-74
2021/06/30 08:07:09;;;;;;;5.20;1.30;;;25.10;53.00;;;;;;4695236;30;20068;-74
2021/06/30 08:09:36;;;;;;;3.83;1.60;;;25.20;53.90;;;;;;4687022;30;20076;-73
2021/06/30 08:12:08;;;;;;;7.43;1.60;;;25.50;53.20;;;;;;4680987;30;20042;-73
2021/06/30 08:14:34;;;;;;;8.07;1.30;;;25.90;53.70;;;;;;4696734;30;20149;-73
2021/06/30 08:17:04;;;;;;;5.80;1.52;;;25.90;52.50;;;;;;4682389;30;20314;-73
2021/06/30 08:19:29;;;;;;;2.42;1.63;;;25.90;53.00;;;;;;4693875;30;20314;-73
2021/06/30 08:21:55;;;;;;;4.47;1.52;;;26.10;52.80;;;;;;4680675;30;20026;-73
2021/06/30 08:24:21;;;;;;;1.77;1.45;;;26.00;52.10;;;;;;4681040;30;20034;-73
2021/06/30 08:26:47;;;;;;;2.90;1.60;;;25.70;53.00;;;;;;4694321;30;20070;-74
2021/06/30 08:29:13;;;;;;;2.00;1.80;;;25.80;54.00;;;;;;4705505;30;20100;-74
2021/06/30 08:31:39;;;;;;;2.85;1.60;;;25.60;52.90;;;;;;4680872;30;20042;-74
2021/06/30 08:34:05;;;;;;;3.47;1.55;;;25.70;52.60;;;;;;4699659;30;20310;-73
2021/06/30 08:36:31;;;;;;;4.00;1.30;;;25.60;52.10;;;;;;4681599;30;20031;-73
2021/06/30 08:38:57;;;;;;;6.68;1.70;;;25.70;52.90;;;;;;4693728;30;20033;-74
2021/06/30 08:41:23;;;;;;;1.83;1.33;;;25.90;53.30;;;;;;4700688;30;20053;-75
2021/06/30 08:43:49;;;;;;;4.50;1.33;;;25.90;51.50;;;;;;4682941;30;20401;-73
2021/06/30 08:46:18;;;;;;;3.63;1.23;;;25.60;52.30;;;;;;4683894;30;20050;-73
2021/06/30 08:48:45;;;;;;;4.20;1.30;;;25.50;52.10;;;;;;4688378;30;20042;-74
2021/06/30 08:51:14;;;;;;;4.15;1.40;;;25.30;52.80;;;;;;4680481;30;20096;-76
2021/06/30 08:53:44;;;;;;;3.78;1.38;;;25.30;53.00;;;;;;4687089;30;20053;-76
2021/06/30 08:56:09;;;;;;;3.80;1.90;;;25.30;52.70;;;;;;4688978;30;20101;-76
2021/06/30 08:58:36;;;;;;;2.30;1.08;;;25.40;53.10;;;;;;4688643;30;20041;-75
2021/06/30 09:01:03;;;;;;;2.70;1.30;;;25.80;54.50;;;;;;4701382;30;20094;-75
2021/06/30 09:03:29;;;;;;;5.25;1.20;;;26.20;53.70;;;;;;4685498;30;20092;-75
2021/06/30 09:08:41;;;;;;;2.72;1.83;;;26.30;51.10;;;;;;4677885;30;20072;-75
2021/06/30 09:11:11;;;;;;;3.03;1.20;;;26.30;51.80;;;;;;4672505;30;20121;-75
2021/06/30 09:13:37;;;;;;;2.35;1.08;;;26.20;50.80;;;;;;4672620;30;20050;-75
2021/06/30 09:16:03;;;;;;;2.13;1.00;;;26.30;52.40;;;;;;4644280;30;20319;-74
2021/06/30 09:18:35;;;;;;;4.63;1.25;;;26.60;51.10;;;;;;4672807;30;20084;-74
2021/06/30 09:21:19;;;;;;;6.28;1.27;;;26.90;51.90;;;;;;4658050;30;20038;-75
2021/06/30 09:24:18;;;;;;;1.27;0.90;;;26.90;51.60;;;;;;4658235;30;20142;-75
2021/06/30 09:26:49;;;;;;;6.65;1.10;;;26.80;50.70;;;;;;4656608;30;20038;-74
2021/06/30 09:29:16;;;;;;;1.20;1.10;;;26.60;50.70;;;;;;4672808;30;20047;-74
2021/06/30 09:31:46;;;;;;;1.30;1.08;;;26.40;51.20;;;;;;4667462;30;20045;-74
2021/06/30 09:34:17;;;;;;;3.40;1.13;;;26.70;51.40;;;;;;4671349;30;20039;-74
2021/06/30 09:36:45;;;;;;;4.80;1.75;;;27.00;51.70;;;;;;4656847;30;20109;-74
2021/06/30 09:39:12;;;;;;;3.38;1.30;;;27.00;49.80;;;;;;4672202;30;20042;-73
2021/06/30 09:41:43;;;;;;;3.80;1.20;;;27.20;49.80;;;;;;4644117;30;20058;-74
2021/06/30 09:44:11;;;;;;;4.97;1.42;;;27.30;49.10;;;;;;4671999;30;20055;-74
2021/06/30 09:46:39;;;;;;;6.10;1.40;;;27.20;49.20;;;;;;4671390;30;20181;-76
2021/06/30 09:49:16;;;;;;;5.30;0.90;;;27.40;49.10;;;;;;4681751;30;20053;-74
2021/06/30 09:51:44;;;;;;;5.10;1.10;;;27.10;49.20;;;;;;4682781;30;20057;-73
2021/06/30 09:54:14;;;;;;;7.55;1.92;;;27.00;49.80;;;;;;4705773;30;20062;-73
2021/06/30 09:57:02;;;;;;;3.85;1.30;;;27.30;51.40;;;;;;4688914;30;20030;-73
2021/06/30 09:59:36;;;;;;;3.58;1.33;;;27.50;49.40;;;;;;4677750;30;20030;-75
2021/06/30 10:02:05;;;;;;;2.70;1.17;;;27.50;48.10;;;;;;4690877;30;20068;-74
2021/06/30 10:04:32;;;;;;;4.03;1.20;;;27.40;47.00;;;;;;4703024;30;20069;-73
2021/06/30 10:07:06;;;;;;;2.63;1.20;;;27.50;49.50;;;;;;4694166;30;20318;-73
2021/06/30 10:09:32;;;;;;;2.25;1.00;;;27.50;50.20;;;;;;4693329;30;20049;-73
2021/06/30 10:12:07;;;;;;;1.80;1.10;;;27.70;48.90;;;;;;4691159;30;20109;-73
2021/06/30 10:14:33;;;;;;;2.78;0.93;;;27.90;50.40;;;;;;4689653;30;20065;-73
2021/06/30 10:17:00;;;;;;;;;;;28.00;47.30;;;;;;4702666;30;20068;-77
2021/06/30 10:19:26;;;;;;;;;;;27.60;46.60;;;;;;4683842;30;19916;-75
2021/06/30 10:21:52;;;;;;;1.20;1.10;;;27.20;48.00;;;;;;4707622;30;19911;-75
2021/06/30 10:24:19;;;;;;;5.07;1.08;;;27.20;48.20;;;;;;4695830;30;20042;-76
2021/06/30 10:26:45;;;;;;;;;;;27.40;49.20;;;;;;4697075;30;20271;-75
2021/06/30 10:29:11;;;;;;;2.10;1.08;;;27.60;49.10;;;;;;4697696;30;19912;-76
2021/06/30 10:31:38;;;;;;;2.47;1.08;;;27.70;47.80;;;;;;4681420;30;20046;-77
2021/06/30 10:34:11;;;;;;;5.60;1.10;;;27.90;48.70;;;;;;4686102;30;20089;-77
2021/06/30 10:36:43;;;;;;;3.15;1.05;;;28.10;47.30;;;;;;4682757;30;20046;-76
2021/06/30 10:39:10;;;;;;;1.30;1.05;;;28.20;46.50;;;;;;4682111;30;20038;-77
2021/06/30 10:41:47;;;;;;;0.88;0.88;;;28.20;46.90;;;;;;4696916;30;20060;-76
2021/06/30 10:44:24;;;;;;;6.30;1.02;;;28.30;47.10;;;;;;4694261;30;20054;-75
2021/06/30 10:46:53;;;;;;;1.15;1.02;;;28.20;46.20;;;;;;4696337;30;20054;-75
2021/06/30 10:49:25;;;;;;;2.38;0.77;;;28.10;46.60;;;;;;4679967;30;20034;-75
2021/06/30 10:51:56;;;;;;;3.80;0.85;;;28.20;45.90;;;;;;4688363;30;20034;-75
2021/06/30 10:54:32;;;;;;;3.70;0.70;;;28.40;45.40;;;;;;4697761;30;20034;-76
2021/06/30 10:57:19;;;;;;;1.05;0.77;;;28.40;44.90;;;;;;4682981;30;20085;-75
2021/06/30 11:00:04;;;;;;;4.40;0.82;;;28.40;44.80;;;;;;4689362;30;20046;-74
2021/06/30 11:02:33;;;;;;;2.92;1.60;;;28.50;45.60;;;;;;4691602;30;20089;-77
2021/06/30 11:05:14;;;;;;;3.60;0.82;;;28.40;44.30;;;;;;4678628;30;20193;-77
2021/06/30 11:07:44;;;;;;;1.30;0.75;;;28.30;44.80;;;;;;4689462;30;20038;-78
2021/06/30 11:10:16;;;;;;;3.10;0.80;;;28.10;43.40;;;;;;4694863;30;20049;-77
2021/06/30 11:12:52;;;;;;;0.60;0.50;;;28.20;45.70;;;;;;4695525;30;20105;-77
2021/06/30 11:15:36;;;;;;;2.00;1.30;;;28.40;44.90;;;;;;4690847;30;20110;-77
2021/06/30 11:18:25;;;;;;;2.33;0.80;;;28.50;43.80;;;;;;4681826;30;20290;-77
2021/06/30 11:20:53;;;;;;;0.82;0.68;;;28.40;43.30;;;;;;4687345;30;20035;-78
2021/06/30 11:23:25;;;;;;;2.83;0.75;;;28.30;43.90;;;;;;4704312;30;20038;-77
2021/06/30 11:25:54;;;;;;;0.65;0.63;;;28.40;45.10;;;;;;4707352;30;20149;-77
2021/06/30 11:28:35;;;;;;;2.22;0.82;;;28.50;44.30;;;;;;4688263;30;20165;-77
2021/06/30 11:31:27;;;;;;;1.58;0.85;;;28.50;44.60;;;;;;4705264;30;20049;-78
2021/06/30 11:34:21;;;;;;;2.78;0.77;;;28.60;44.30;;;;;;4704681;30;20102;-78
2021/06/30 11:36:48;;;;;;;1.60;0.98;;;28.50;47.40;;;;;;4694432;30;20181;-78
2021/06/30 11:39:18;;;;;;;1.95;1.48;;;28.60;44.30;;;;;;4663857;30;20216;-77
2021/06/30 11:41:49;;;;;;;3.75;0.80;;;28.60;46.50;;;;;;4681153;30;20034;-77
2021/06/30 11:44:17;;;;;;;11.02;1.20;;;28.90;45.90;;;;;;4686709;30;20041;-77
2021/06/30 11:46:45;;;;;;;4.20;1.00;;;28.60;44.60;;;;;;4683963;30;20069;-78
2021/06/30 11:49:16;;;;;;;1.20;0.95;;;28.30;46.20;;;;;;4704893;30;20049;-77
2021/06/30 11:51:42;;;;;;;1.70;1.10;;;28.30;45.50;;;;;;4693833;30;20038;-78
2021/06/30 11:54:14;;;;;;;0.83;0.83;;;28.40;46.20;;;;;;4695577;30;20085;-78
2021/06/30 11:56:42;;;;;;;3.80;1.25;;;28.40;47.10;;;;;;4684648;30;20054;-78
2021/06/30 11:59:37;;;;;;;2.22;1.17;;;28.60;45.80;;;;;;4697847;30;20030;-77
2021/06/30 12:02:03;;;;;;;1.58;1.08;;;28.70;47.70;;;;;;4618435;31;20055;-78
2021/06/30 12:04:31;;;;;;;2.67;1.27;;;28.70;45.60;;;;;;4629255;30;20216;-78
2021/06/30 12:07:01;;;;;;;2.53;1.10;;;28.70;46.10;;;;;;4625427;31;20359;-77
2021/06/30 12:09:29;;;;;;;6.32;1.50;;;28.80;46.50;;;;;;4627024;31;20043;-78
2021/06/30 12:12:08;;;;;;;2.65;1.25;;;28.90;46.60;;;;;;4642299;31;20062;-78
2021/06/30 12:14:40;;;;;;;3.30;1.10;;;29.00;45.80;;;;;;4630223;31;20031;-78
2021/06/30 12:17:07;;;;;;;3.30;0.98;;;29.10;46.60;;;;;;4616115;31;20028;-78
2021/06/30 12:19:42;;;;;;;1.75;1.00;;;29.10;45.90;;;;;;4624285;31;20114;-78
2021/06/30 12:22:20;;;;;;;2.05;1.20;;;29.10;46.20;;;;;;4643784;31;20626;-78
2021/06/30 12:25:00;;;;;;;3.42;1.73;;;29.10;46.30;;;;;;4629864;31;20051;-78
2021/06/30 12:27:28;;;;;;;1.02;0.93;;;29.10;46.30;;;;;;4644628;31;20087;-78
2021/06/30 12:29:57;;;;;;;3.03;0.80;;;29.00;45.40;;;;;;4617642;31;20069;-78
2021/06/30 12:32:24;;;;;;;2.22;0.63;;;28.90;45.30;;;;;;4613918;31;20047;-77
2021/06/30 12:34:50;;;;;;;1.05;0.95;;;28.90;46.10;;;;;;4642452;31;20081;-78
2021/06/30 12:37:24;;;;;;;1.98;0.85;;;29.10;44.40;;;;;;4626047;30;20043;-77
2021/06/30 12:39:55;;;;;;;3.45;0.95;;;29.20;46.20;;;;;;4687601;30;20041;-77
2021/06/30 12:42:21;;;;;;;2.25;0.90;;;29.30;45.80;;;;;;4693475;30;20229;-77
2021/06/30 12:44:59;;;;;;;1.93;0.70;;;29.40;44.70;;;;;;4686012;30;20105;-78
2021/06/30 12:47:27;;;;;;;1.30;0.80;;;29.60;45.00;;;;;;4687812;30;20065;-78
2021/06/30 12:50:08;;;;;;;2.17;0.98;;;29.40;44.70;;;;;;4685973;30;20089;-78
2021/06/30 12:52:35;;;;;;;4.25;1.02;;;29.20;46.50;;;;;;4693534;30;20041;-78
2021/06/30 12:55:09;;;;;;;5.30;1.00;;;29.00;45.60;;;;;;4702268;30;20035;-77
2021/06/30 12:58:01;;;;;;;3.03;0.80;;;28.90;45.80;;;;;;4684827;30;20034;-77
2021/06/30 13:00:31;;;;;;;2.53;1.00;;;28.90;47.10;;;;;;4700504;30;20030;-77
2021/06/30 13:03:17;;;;;;;5.65;0.90;;;29.10;46.20;;;;;;4687620;30;20040;-78
2021/06/30 13:05:48;;;;;;;9.18;1.20;;;29.20;45.80;;;;;;4680561;30;20086;-77
2021/06/30 13:08:40;;;;;;;4.72;1.20;;;29.20;46.30;;;;;;4685501;30;20046;-77
2021/06/30 13:11:09;;;;;;;7.47;1.45;;;29.00;45.30;;;;;;4688411;30;20048;-77
2021/06/30 13:13:52;;;;;;;11.35;7.63;;;28.80;45.90;;;;;;4689665;30;20045;-77
2021/06/30 13:16:18;;;;;;;5.28;1.80;;;28.80;46.40;;;;;;4692418;30;20034;-79
2021/06/30 13:18:51;;;;;;;7.83;1.23;;;28.90;45.90;;;;;;4694670;30;20348;-76
2021/06/30 13:21:17;;;;;;;2.53;0.90;;;28.70;46.10;;;;;;4697306;30;20085;-76
2021/06/30 13:24:04;;;;;;;3.63;0.77;;;28.50;46.60;;;;;;4691158;30;20091;-76
2021/06/30 13:34:20;;;;;;;4.20;1.00;;;28.70;47.90;;;;;;4686519;30;20043;-76
2021/06/30 13:36:54;;;;;;;9.25;1.27;;;29.00;47.40;;;;;;4678794;30;20041;-77
2021/06/30 13:39:20;;;;;;;5.18;1.10;;;29.20;46.70;;;;;;4691630;30;20030;-76
2021/06/30 13:41:45;;;;;;;6.33;1.30;;;29.40;47.10;;;;;;4697295;30;20109;-77
2021/06/30 13:44:20;;;;;;;1.33;1.10;;;29.40;45.80;;;;;;4683541;30;20310;-76
2021/06/30 13:46:46;;;;;;;2.22;0.90;;;29.10;46.30;;;;;;4688325;30;20123;-76
2021/06/30 13:49:12;;;;;;;3.27;1.00;;;29.00;47.20;;;;;;4702505;30;20034;-76
2021/06/30 13:51:37;;;;;;;2.97;1.13;;;29.10;47.30;;;;;;4677336;30;20041;-78
2021/06/30 13:54:03;;;;;;;9.70;1.30;;;29.30;46.60;;;;;;4699351;30;20037;-78
2021/06/30 13:56:29;;;;;;;1.10;1.00;;;29.60;46.40;;;;;;4688610;30;20026;-78
2021/06/30 13:58:58;;;;;;;3.63;1.05;;;29.80;47.00;;;;;;4686599;30;20026;-78
2021/06/30 14:01:24;;;;;;;4.53;1.10;;;29.90;45.40;;;;;;4696060;30;20038;-78
2021/06/30 14:03:50;;;;;;;2.20;1.17;;;29.70;45.10;;;;;;4701983;30;20069;-78
2021/06/30 14:06:17;;;;;;;2.23;1.03;;;29.30;45.90;;;;;;4701776;30;20033;-78
2021/06/30 14:08:43;;;;;;;5.50;1.02;;;29.00;46.90;;;;;;4693389;30;20069;-78
2021/06/30 14:11:10;;;;;;;6.20;1.30;;;28.60;46.60;;;;;;4692034;30;20119;-77
2021/06/30 14:13:38;;;;;;;2.67;1.13;;;28.20;47.60;;;;;;4702266;30;20297;-78
2021/06/30 14:16:05;;;;;;;2.90;0.98;;;27.90;48.70;;;;;;4685629;30;20058;-77
2021/06/30 14:18:32;;;;;;;2.45;1.27;;;27.80;48.70;;;;;;4683588;30;20038;-78
2021/06/30 14:20:58;;;;;;;6.28;1.35;;;27.70;49.00;;;;;;4677963;30;20046;-77
2021/06/30 14:23:26;;;;;;;3.40;1.00;;;27.70;50.00;;;;;;4671938;30;20090;-78
2021/06/30 14:25:58;;;;;;;3.45;0.90;;;27.80;49.20;;;;;;4695253;30;20038;-78
2021/06/30 14:28:24;;;;;;;2.53;0.90;;;27.80;49.10;;;;;;4691092;30;20038;-78
2021/06/30 14:30:51;;;;;;;3.70;0.87;;;27.80;49.70;;;;;;4680107;30;20092;-78
2021/06/30 14:33:20;;;;;;;1.75;0.80;;;27.80;49.30;;;;;;4705695;30;20332;-78
2021/06/30 14:35:48;;;;;;;2.38;1.00;;;27.70;49.00;;;;;;4707582;30;20034;-78
2021/06/30 14:38:14;;;;;;;2.28;1.08;;;27.70;49.90;;;;;;4699573;30;20037;-77
2021/06/30 14:40:41;;;;;;;4.07;1.10;;;27.50;50.20;;;;;;4693422;30;20038;-77
2021/06/30 14:43:07;;;;;;;;;;;27.20;50.30;;;;;;4701413;30;20091;-77
2021/06/30 14:45:33;;;;;;;2.67;1.00;;;27.10;51.30;;;;;;4687695;30;20013;-77
2021/06/30 14:48:00;;;;;;;7.07;1.55;;;27.00;51.20;;;;;;4683895;30;20070;-78
2021/06/30 14:50:28;;;;;;;2.55;0.82;;;27.00;51.10;;;;;;4689908;30;20046;-77
2021/06/30 14:52:54;;;;;;;2.13;0.88;;;27.10;51.80;;;;;;4697734;30;20045;-77
2021/06/30 14:55:20;;;;;;;5.70;1.17;;;27.30;51.30;;;;;;4697163;30;20109;-77
2021/06/30 14:57:45;;;;;;;2.40;0.85;;;27.50;51.80;;;;;;4704390;30;20030;-77
2021/06/30 15:00:14;;;;;;;1.25;0.70;;;27.50;50.60;;;;;;4708383;30;20030;-78
2021/06/30 15:02:41;;;;;;;9.80;1.05;;;27.60;50.50;;;;;;4694138;30;20109;-77
2021/06/30 15:05:08;;;;;;;5.78;1.05;;;27.60;50.60;;;;;;4677653;30;20042;-78
2021/06/30 15:07:35;;;;;;;5.53;1.13;;;27.60;50.20;;;;;;4688023;30;20034;-77
2021/06/30 15:10:02;;;;;;;4.65;1.20;;;27.40;50.00;;;;;;4684905;30;20089;-78
2021/06/30 15:12:28;;;;;;;6.10;1.00;;;27.20;50.10;;;;;;4691732;30;20334;-78
2021/06/30 15:14:54;;;;;;;2.67;1.20;;;27.20;50.40;;;;;;4680497;30;20037;-77
2021/06/30 15:17:19;;;;;;;3.75;0.80;;;27.00;50.60;;;;;;4685610;30;20037;-78
2021/06/30 15:19:45;;;;;;;3.00;0.98;;;27.00;50.20;;;;;;4687595;30;20034;-77
2021/06/30 15:22:11;;;;;;;3.83;1.03;;;27.00;50.80;;;;;;4679971;30;20035;-77
2021/06/30 15:24:37;;;;;;;7.63;1.45;;;26.80;51.00;;;;;;4688232;30;20034;-77
2021/06/30 15:27:03;;;;;;;5.50;1.10;;;26.50;51.50;;;;;;4704173;30;20408;-77
2021/06/30 15:29:29;;;;;;;3.50;0.88;;;26.30;52.10;;;;;;4683571;30;20038;-77
2021/06/30 15:31:55;;;;;;;1.65;0.77;;;26.20;51.80;;;;;;4681879;30;20053;-75
2021/06/30 15:34:21;;;;;;;7.63;1.33;;;26.00;51.70;;;;;;4686386;30;20037;-75
2021/06/30 15:36:49;;;;;;;4.45;0.68;;;25.90;52.40;;;;;;4692147;30;20034;-75
2021/06/30 15:39:17;;;;;;;2.75;1.15;;;25.90;52.90;;;;;;4699993;30;20153;-75
2021/06/30 15:41:52;;;;;;;6.07;0.90;;;25.70;53.00;;;;;;4686935;30;20034;-73
2021/06/30 15:44:24;;;;;;;5.28;1.20;;;25.50;54.00;;;;;;4682270;30;20049;-74
2021/06/30 15:46:51;;;;;;;4.50;1.02;;;25.50;53.80;;;;;;4682728;30;20074;-75
2021/06/30 15:49:17;;;;;;;5.15;1.00;;;25.50;54.30;;;;;;4684646;30;20053;-75